sensor_id;sensor_type;location;lat;lon;timestamp;P1;durP1;ratioP1;P2;durP2;ratioP2
71387;SDS011;59201;59.902;10.520;2023-03-23T00:01:48;14.23;;;2.28;;
71387;SDS011;59201;59.902;10.520;2023-03-23T00:04:18;12.00;;;1.98;;
71387;SDS011;59201;59.902;10.520;2023-03-23T00:06:46;14.10;;;2.35;;
71387;SDS011;59201;59.902;10.520;2023-03-23T00:09:14;12.27;;;2.10;;
71387;SDS011;59201;59.902;10.520;2023-03-23T00:11:43;12.38;;;2.40;;
71387;SDS011;59201;59.902;10.520;2023-03-23T00:14:10;14.88;;;2.42;;
71387;SDS011;59201;59.902;10.520;2023-03-23T00:16:39;13.95;;;2.10;;
71387;SDS011;59201;59.902;10.520;2023-03-23T00:19:10;14.13;;;2.28;;
71387;SDS011;59201;59.902;10.520;2023-03-23T00:21:42;15.03;;;2.27;;
71387;SDS011;59201;59.902;10.520;2023-03-23T00:24:16;15.20;;;2.22;;
71387;SDS011;59201;59.902;10.520;2023-03-23T00:26:47;16.92;;;3.20;;
71387;SDS011;59201;59.902;10.520;2023-03-23T00:29:19;11.13;;;2.03;;
71387;SDS011;59201;59.902;10.520;2023-03-23T00:31:52;11.98;;;2.20;;
71387;SDS011;59201;59.902;10.520;2023-03-23T00:34:23;15.90;;;2.57;;
71387;SDS011;59201;59.902;10.520;2023-03-23T00:36:51;14.57;;;2.10;;
71387;SDS011;59201;59.902;10.520;2023-03-23T00:39:18;11.55;;;2.03;;
71387;SDS011;59201;59.902;10.520;2023-03-23T00:41:46;14.43;;;2.35;;
71387;SDS011;59201;59.902;10.520;2023-03-23T00:44:17;15.45;;;2.40;;
71387;SDS011;59201;59.902;10.520;2023-03-23T00:46:45;16.63;;;2.33;;
71387;SDS011;59201;59.902;10.520;2023-03-23T00:49:18;15.27;;;2.40;;
71387;SDS011;59201;59.902;10.520;2023-03-23T00:51:50;9.73;;;2.60;;
71387;SDS011;59201;59.902;10.520;2023-03-23T00:54:21;22.98;;;3.35;;
71387;SDS011;59201;59.902;10.520;2023-03-23T00:56:51;18.10;;;3.15;;
71387;SDS011;59201;59.902;10.520;2023-03-23T00:59:20;16.07;;;2.13;;
71387;SDS011;59201;59.902;10.520;2023-03-23T01:01:48;19.90;;;2.95;;
71387;SDS011;59201;59.902;10.520;2023-03-23T01:04:18;17.00;;;2.63;;
71387;SDS011;59201;59.902;10.520;2023-03-23T01:06:46;21.15;;;3.15;;
71387;SDS011;59201;59.902;10.520;2023-03-23T01:09:16;19.20;;;3.25;;
71387;SDS011;59201;59.902;10.520;2023-03-23T01:11:51;11.93;;;2.90;;
71387;SDS011;59201;59.902;10.520;2023-03-23T01:14:21;15.65;;;3.55;;
71387;SDS011;59201;59.902;10.520;2023-03-23T01:16:51;18.55;;;3.83;;
71387;SDS011;59201;59.902;10.520;2023-03-23T01:19:19;19.20;;;3.70;;
71387;SDS011;59201;59.902;10.520;2023-03-23T01:21:48;15.23;;;3.47;;
71387;SDS011;59201;59.902;10.520;2023-03-23T01:24:18;14.03;;;3.30;;
71387;SDS011;59201;59.902;10.520;2023-03-23T01:26:47;18.42;;;3.45;;
71387;SDS011;59201;59.902;10.520;2023-03-23T01:29:15;21.10;;;3.08;;
71387;SDS011;59201;59.902;10.520;2023-03-23T01:31:44;22.25;;;3.50;;
71387;SDS011;59201;59.902;10.520;2023-03-23T01:34:13;19.35;;;2.95;;
71387;SDS011;59201;59.902;10.520;2023-03-23T01:36:41;18.60;;;2.60;;
71387;SDS011;59201;59.902;10.520;2023-03-23T01:39:14;17.20;;;3.28;;
71387;SDS011;59201;59.902;10.520;2023-03-23T01:41:43;14.27;;;3.25;;
71387;SDS011;59201;59.902;10.520;2023-03-23T01:46:43;13.55;;;2.20;;
71387;SDS011;59201;59.902;10.520;2023-03-23T01:49:16;13.87;;;2.30;;
71387;SDS011;59201;59.902;10.520;2023-03-23T01:51:54;16.17;;;2.72;;
71387;SDS011;59201;59.902;10.520;2023-03-23T01:54:24;15.15;;;3.58;;
71387;SDS011;59201;59.902;10.520;2023-03-23T01:56:59;15.48;;;2.92;;
71387;SDS011;59201;59.902;10.520;2023-03-23T01:59:28;18.35;;;3.40;;
71387;SDS011;59201;59.902;10.520;2023-03-23T02:01:58;15.17;;;3.03;;
71387;SDS011;59201;59.902;10.520;2023-03-23T02:04:26;17.67;;;3.03;;
71387;SDS011;59201;59.902;10.520;2023-03-23T02:06:54;20.20;;;3.08;;
71387;SDS011;59201;59.902;10.520;2023-03-23T02:09:27;12.88;;;1.80;;
71387;SDS011;59201;59.902;10.520;2023-03-23T02:11:55;13.65;;;1.95;;
71387;SDS011;59201;59.902;10.520;2023-03-23T02:14:26;15.87;;;2.53;;
71387;SDS011;59201;59.902;10.520;2023-03-23T02:22:20;16.10;;;3.05;;
71387;SDS011;59201;59.902;10.520;2023-03-23T02:27:36;21.03;;;2.90;;
71387;SDS011;59201;59.902;10.520;2023-03-23T02:35:44;16.33;;;3.70;;
71387;SDS011;59201;59.902;10.520;2023-03-23T02:38:36;16.30;;;4.45;;
71387;SDS011;59201;59.902;10.520;2023-03-23T02:41:03;14.20;;;3.23;;
71387;SDS011;59201;59.902;10.520;2023-03-23T02:43:40;14.35;;;3.22;;
71387;SDS011;59201;59.902;10.520;2023-03-23T02:46:09;14.55;;;3.42;;
71387;SDS011;59201;59.902;10.520;2023-03-23T02:48:39;15.77;;;4.20;;
71387;SDS011;59201;59.902;10.520;2023-03-23T02:51:08;22.52;;;4.10;;
71387;SDS011;59201;59.902;10.520;2023-03-23T02:53:41;22.53;;;3.50;;
71387;SDS011;59201;59.902;10.520;2023-03-23T02:56:11;25.50;;;4.30;;
71387;SDS011;59201;59.902;10.520;2023-03-23T02:58:39;23.75;;;4.28;;
71387;SDS011;59201;59.902;10.520;2023-03-23T03:04:01;15.85;;;3.13;;
71387;SDS011;59201;59.902;10.520;2023-03-23T03:11:36;14.07;;;3.00;;
71387;SDS011;59201;59.902;10.520;2023-03-23T03:14:26;12.20;;;2.42;;
71387;SDS011;59201;59.902;10.520;2023-03-23T03:17:31;19.92;;;3.65;;
71387;SDS011;59201;59.902;10.520;2023-03-23T03:19:55;18.57;;;3.23;;
71387;SDS011;59201;59.902;10.520;2023-03-23T03:22:28;23.65;;;5.32;;
71387;SDS011;59201;59.902;10.520;2023-03-23T03:24:57;17.75;;;3.63;;
71387;SDS011;59201;59.902;10.520;2023-03-23T03:27:25;17.35;;;4.10;;
71387;SDS011;59201;59.902;10.520;2023-03-23T03:29:58;19.05;;;4.22;;
71387;SDS011;59201;59.902;10.520;2023-03-23T03:32:47;15.77;;;4.90;;
71387;SDS011;59201;59.902;10.520;2023-03-23T03:35:15;19.08;;;4.80;;
71387;SDS011;59201;59.902;10.520;2023-03-23T03:37:43;18.88;;;4.32;;
71387;SDS011;59201;59.902;10.520;2023-03-23T03:40:14;14.98;;;3.92;;
71387;SDS011;59201;59.902;10.520;2023-03-23T03:42:42;21.20;;;4.38;;
71387;SDS011;59201;59.902;10.520;2023-03-23T03:45:12;18.43;;;3.77;;
71387;SDS011;59201;59.902;10.520;2023-03-23T03:47:45;24.35;;;4.32;;
71387;SDS011;59201;59.902;10.520;2023-03-23T03:50:13;20.73;;;4.03;;
71387;SDS011;59201;59.902;10.520;2023-03-23T03:52:43;18.05;;;4.38;;
71387;SDS011;59201;59.902;10.520;2023-03-23T03:55:11;18.50;;;3.20;;
71387;SDS011;59201;59.902;10.520;2023-03-23T03:57:40;12.93;;;3.03;;
71387;SDS011;59201;59.902;10.520;2023-03-23T04:00:10;15.55;;;3.10;;
71387;SDS011;59201;59.902;10.520;2023-03-23T04:02:43;23.38;;;4.53;;
71387;SDS011;59201;59.902;10.520;2023-03-23T04:05:17;20.45;;;4.20;;
71387;SDS011;59201;59.902;10.520;2023-03-23T04:07:46;18.65;;;3.58;;
71387;SDS011;59201;59.902;10.520;2023-03-23T04:10:18;22.40;;;3.27;;
71387;SDS011;59201;59.902;10.520;2023-03-23T04:12:49;13.00;;;2.80;;
71387;SDS011;59201;59.902;10.520;2023-03-23T04:15:16;19.50;;;3.70;;
71387;SDS011;59201;59.902;10.520;2023-03-23T04:17:50;19.50;;;4.47;;
71387;SDS011;59201;59.902;10.520;2023-03-23T04:20:18;16.27;;;3.25;;
71387;SDS011;59201;59.902;10.520;2023-03-23T04:22:48;23.60;;;3.43;;
71387;SDS011;59201;59.902;10.520;2023-03-23T04:25:20;21.90;;;3.38;;
71387;SDS011;59201;59.902;10.520;2023-03-23T04:27:49;17.23;;;3.35;;
71387;SDS011;59201;59.902;10.520;2023-03-23T04:30:22;15.68;;;3.20;;
71387;SDS011;59201;59.902;10.520;2023-03-23T04:32:50;15.68;;;4.15;;
71387;SDS011;59201;59.902;10.520;2023-03-23T04:35:22;17.27;;;4.10;;
71387;SDS011;59201;59.902;10.520;2023-03-23T04:37:51;16.50;;;3.95;;
71387;SDS011;59201;59.902;10.520;2023-03-23T04:40:21;16.90;;;4.35;;
71387;SDS011;59201;59.902;10.520;2023-03-23T04:42:49;22.20;;;4.22;;
71387;SDS011;59201;59.902;10.520;2023-03-23T04:45:18;15.23;;;3.47;;
71387;SDS011;59201;59.902;10.520;2023-03-23T04:47:49;19.80;;;4.63;;
71387;SDS011;59201;59.902;10.520;2023-03-23T04:50:23;18.65;;;4.03;;
71387;SDS011;59201;59.902;10.520;2023-03-23T04:52:53;19.42;;;3.85;;
71387;SDS011;59201;59.902;10.520;2023-03-23T04:55:25;16.17;;;3.47;;
71387;SDS011;59201;59.902;10.520;2023-03-23T04:57:54;19.25;;;3.95;;
71387;SDS011;59201;59.902;10.520;2023-03-23T05:00:22;12.73;;;2.90;;
71387;SDS011;59201;59.902;10.520;2023-03-23T05:02:55;13.00;;;3.05;;
71387;SDS011;59201;59.902;10.520;2023-03-23T05:05:25;17.35;;;3.85;;
71387;SDS011;59201;59.902;10.520;2023-03-23T05:07:57;16.30;;;3.15;;
71387;SDS011;59201;59.902;10.520;2023-03-23T05:10:27;20.50;;;4.20;;
71387;SDS011;59201;59.902;10.520;2023-03-23T05:12:57;23.97;;;4.07;;
71387;SDS011;59201;59.902;10.520;2023-03-23T05:15:26;17.30;;;4.38;;
71387;SDS011;59201;59.902;10.520;2023-03-23T05:17:56;21.20;;;3.58;;
71387;SDS011;59201;59.902;10.520;2023-03-23T05:20:27;20.23;;;4.00;;
71387;SDS011;59201;59.902;10.520;2023-03-23T05:22:57;17.98;;;3.80;;
71387;SDS011;59201;59.902;10.520;2023-03-23T05:25:25;15.90;;;3.53;;
71387;SDS011;59201;59.902;10.520;2023-03-23T05:27:53;25.20;;;3.90;;
71387;SDS011;59201;59.902;10.520;2023-03-23T05:30:23;23.88;;;4.43;;
71387;SDS011;59201;59.902;10.520;2023-03-23T05:32:56;15.18;;;3.58;;
71387;SDS011;59201;59.902;10.520;2023-03-23T05:35:25;22.50;;;4.03;;
71387;SDS011;59201;59.902;10.520;2023-03-23T05:37:52;18.67;;;3.77;;
71387;SDS011;59201;59.902;10.520;2023-03-23T05:40:21;21.92;;;4.68;;
71387;SDS011;59201;59.902;10.520;2023-03-23T05:42:51;21.27;;;4.28;;
71387;SDS011;59201;59.902;10.520;2023-03-23T05:45:22;14.95;;;3.42;;
71387;SDS011;59201;59.902;10.520;2023-03-23T05:47:54;17.75;;;3.78;;
71387;SDS011;59201;59.902;10.520;2023-03-23T05:50:25;19.87;;;4.77;;
71387;SDS011;59201;59.902;10.520;2023-03-23T05:52:54;17.58;;;4.20;;
71387;SDS011;59201;59.902;10.520;2023-03-23T05:55:25;13.10;;;4.47;;
71387;SDS011;59201;59.902;10.520;2023-03-23T06:00:57;20.77;;;3.88;;
71387;SDS011;59201;59.902;10.520;2023-03-23T06:03:24;11.97;;;3.20;;
71387;SDS011;59201;59.902;10.520;2023-03-23T06:05:53;17.05;;;3.72;;
71387;SDS011;59201;59.902;10.520;2023-03-23T06:08:23;21.52;;;3.45;;
71387;SDS011;59201;59.902;10.520;2023-03-23T06:10:53;22.67;;;4.53;;
71387;SDS011;59201;59.902;10.520;2023-03-23T06:13:21;15.38;;;3.65;;
71387;SDS011;59201;59.902;10.520;2023-03-23T06:15:50;19.57;;;3.47;;
71387;SDS011;59201;59.902;10.520;2023-03-23T06:18:30;16.83;;;3.88;;
71387;SDS011;59201;59.902;10.520;2023-03-23T06:21:05;21.50;;;3.70;;
71387;SDS011;59201;59.902;10.520;2023-03-23T06:23:35;23.38;;;4.07;;
71387;SDS011;59201;59.902;10.520;2023-03-23T06:26:16;26.42;;;3.95;;
71387;SDS011;59201;59.902;10.520;2023-03-23T06:28:45;26.23;;;4.53;;
71387;SDS011;59201;59.902;10.520;2023-03-23T06:31:13;23.02;;;3.78;;
71387;SDS011;59201;59.902;10.520;2023-03-23T06:33:42;17.27;;;3.42;;
71387;SDS011;59201;59.902;10.520;2023-03-23T06:36:10;21.65;;;3.63;;
71387;SDS011;59201;59.902;10.520;2023-03-23T06:38:41;17.70;;;3.88;;
71387;SDS011;59201;59.902;10.520;2023-03-23T06:41:09;14.50;;;3.27;;
71387;SDS011;59201;59.902;10.520;2023-03-23T06:43:39;19.83;;;3.60;;
71387;SDS011;59201;59.902;10.520;2023-03-23T06:46:09;26.90;;;5.50;;
71387;SDS011;59201;59.902;10.520;2023-03-23T06:48:36;18.48;;;3.45;;
71387;SDS011;59201;59.902;10.520;2023-03-23T06:51:04;23.27;;;4.18;;
71387;SDS011;59201;59.902;10.520;2023-03-23T06:53:33;21.90;;;3.60;;
71387;SDS011;59201;59.902;10.520;2023-03-23T06:56:03;20.42;;;3.40;;
71387;SDS011;59201;59.902;10.520;2023-03-23T06:58:34;23.42;;;3.75;;
71387;SDS011;59201;59.902;10.520;2023-03-23T07:01:04;17.38;;;3.42;;
71387;SDS011;59201;59.902;10.520;2023-03-23T07:03:35;19.38;;;3.67;;
71387;SDS011;59201;59.902;10.520;2023-03-23T07:06:05;21.53;;;3.47;;
71387;SDS011;59201;59.902;10.520;2023-03-23T07:08:35;20.58;;;3.42;;
71387;SDS011;59201;59.902;10.520;2023-03-23T07:11:05;14.55;;;3.40;;
71387;SDS011;59201;59.902;10.520;2023-03-23T07:13:33;15.07;;;3.60;;
71387;SDS011;59201;59.902;10.520;2023-03-23T07:16:03;17.83;;;3.40;;
71387;SDS011;59201;59.902;10.520;2023-03-23T07:18:32;19.33;;;3.63;;
71387;SDS011;59201;59.902;10.520;2023-03-23T07:21:00;16.98;;;3.70;;
71387;SDS011;59201;59.902;10.520;2023-03-23T07:23:28;20.88;;;4.07;;
71387;SDS011;59201;59.902;10.520;2023-03-23T07:25:57;20.25;;;4.28;;
71387;SDS011;59201;59.902;10.520;2023-03-23T07:28:30;23.40;;;4.03;;
71387;SDS011;59201;59.902;10.520;2023-03-23T07:30:58;18.73;;;3.60;;
71387;SDS011;59201;59.902;10.520;2023-03-23T07:33:26;20.02;;;3.67;;
71387;SDS011;59201;59.902;10.520;2023-03-23T07:35:53;21.70;;;4.25;;
71387;SDS011;59201;59.902;10.520;2023-03-23T07:38:25;15.38;;;3.30;;
71387;SDS011;59201;59.902;10.520;2023-03-23T07:40:55;15.13;;;3.22;;
71387;SDS011;59201;59.902;10.520;2023-03-23T07:43:23;24.20;;;3.90;;
71387;SDS011;59201;59.902;10.520;2023-03-23T07:45:57;18.05;;;3.30;;
71387;SDS011;59201;59.902;10.520;2023-03-23T07:48:27;18.23;;;3.63;;
71387;SDS011;59201;59.902;10.520;2023-03-23T07:50:57;18.92;;;3.70;;
71387;SDS011;59201;59.902;10.520;2023-03-23T07:53:26;12.60;;;2.92;;
71387;SDS011;59201;59.902;10.520;2023-03-23T07:55:57;19.77;;;3.17;;
71387;SDS011;59201;59.902;10.520;2023-03-23T07:58:25;16.63;;;2.63;;
71387;SDS011;59201;59.902;10.520;2023-03-23T08:00:59;18.42;;;3.35;;
71387;SDS011;59201;59.902;10.520;2023-03-23T08:03:28;15.38;;;3.47;;
71387;SDS011;59201;59.902;10.520;2023-03-23T08:05:59;15.02;;;3.65;;
71387;SDS011;59201;59.902;10.520;2023-03-23T08:08:29;16.07;;;2.97;;
71387;SDS011;59201;59.902;10.520;2023-03-23T08:10:58;15.60;;;3.28;;
71387;SDS011;59201;59.902;10.520;2023-03-23T08:13:27;17.00;;;3.25;;
71387;SDS011;59201;59.902;10.520;2023-03-23T08:15:57;15.75;;;3.03;;
71387;SDS011;59201;59.902;10.520;2023-03-23T08:18:29;15.77;;;2.97;;
71387;SDS011;59201;59.902;10.520;2023-03-23T08:20:58;17.13;;;3.60;;
71387;SDS011;59201;59.902;10.520;2023-03-23T08:23:28;18.13;;;3.50;;
71387;SDS011;59201;59.902;10.520;2023-03-23T08:25:57;17.77;;;2.92;;
71387;SDS011;59201;59.902;10.520;2023-03-23T08:28:25;21.50;;;4.18;;
71387;SDS011;59201;59.902;10.520;2023-03-23T08:30:55;14.50;;;3.28;;
71387;SDS011;59201;59.902;10.520;2023-03-23T08:33:22;13.93;;;3.20;;
71387;SDS011;59201;59.902;10.520;2023-03-23T08:35:57;18.38;;;3.70;;
71387;SDS011;59201;59.902;10.520;2023-03-23T08:38:26;16.13;;;3.08;;
71387;SDS011;59201;59.902;10.520;2023-03-23T08:40:59;17.63;;;3.70;;
71387;SDS011;59201;59.902;10.520;2023-03-23T08:43:32;15.02;;;2.88;;
71387;SDS011;59201;59.902;10.520;2023-03-23T08:46:00;13.87;;;2.80;;
71387;SDS011;59201;59.902;10.520;2023-03-23T08:48:33;15.50;;;3.50;;
71387;SDS011;59201;59.902;10.520;2023-03-23T08:51:03;21.33;;;3.17;;
71387;SDS011;59201;59.902;10.520;2023-03-23T08:53:35;13.13;;;2.90;;
71387;SDS011;59201;59.902;10.520;2023-03-23T08:56:05;16.10;;;3.35;;
71387;SDS011;59201;59.902;10.520;2023-03-23T08:58:37;18.23;;;3.70;;
71387;SDS011;59201;59.902;10.520;2023-03-23T09:01:06;17.52;;;3.70;;
71387;SDS011;59201;59.902;10.520;2023-03-23T09:03:34;17.95;;;3.85;;
71387;SDS011;59201;59.902;10.520;2023-03-23T09:06:04;24.13;;;3.90;;
71387;SDS011;59201;59.902;10.520;2023-03-23T09:08:33;19.98;;;3.28;;
71387;SDS011;59201;59.902;10.520;2023-03-23T09:11:02;16.93;;;4.10;;
71387;SDS011;59201;59.902;10.520;2023-03-23T09:13:34;19.65;;;4.13;;
71387;SDS011;59201;59.902;10.520;2023-03-23T09:16:01;17.15;;;3.85;;
71387;SDS011;59201;59.902;10.520;2023-03-23T09:18:37;20.10;;;3.85;;
71387;SDS011;59201;59.902;10.520;2023-03-23T09:21:07;17.05;;;3.83;;
71387;SDS011;59201;59.902;10.520;2023-03-23T09:23:36;19.13;;;4.40;;
71387;SDS011;59201;59.902;10.520;2023-03-23T09:26:07;16.33;;;3.22;;
71387;SDS011;59201;59.902;10.520;2023-03-23T09:28:35;18.63;;;4.15;;
71387;SDS011;59201;59.902;10.520;2023-03-23T09:31:05;19.17;;;3.55;;
71387;SDS011;59201;59.902;10.520;2023-03-23T09:33:33;19.13;;;4.55;;
71387;SDS011;59201;59.902;10.520;2023-03-23T09:36:01;15.63;;;3.43;;
71387;SDS011;59201;59.902;10.520;2023-03-23T09:38:30;14.40;;;3.58;;
71387;SDS011;59201;59.902;10.520;2023-03-23T09:46:27;16.80;;;3.80;;
71387;SDS011;59201;59.902;10.520;2023-03-23T09:49:02;11.60;;;3.17;;
71387;SDS011;59201;59.902;10.520;2023-03-23T09:51:44;14.60;;;3.60;;
71387;SDS011;59201;59.902;10.520;2023-03-23T09:54:23;10.88;;;2.38;;
71387;SDS011;59201;59.902;10.520;2023-03-23T09:56:52;11.00;;;2.42;;
71387;SDS011;59201;59.902;10.520;2023-03-23T09:59:31;10.30;;;2.40;;
71387;SDS011;59201;59.902;10.520;2023-03-23T10:02:17;8.40;;;2.40;;
71387;SDS011;59201;59.902;10.520;2023-03-23T10:04:45;11.02;;;2.42;;
71387;SDS011;59201;59.902;10.520;2023-03-23T10:07:14;10.70;;;2.58;;
71387;SDS011;59201;59.902;10.520;2023-03-23T10:09:48;10.48;;;2.47;;
71387;SDS011;59201;59.902;10.520;2023-03-23T10:12:19;10.10;;;2.20;;
71387;SDS011;59201;59.902;10.520;2023-03-23T10:25:34;11.20;;;2.00;;
71387;SDS011;59201;59.902;10.520;2023-03-23T10:28:09;7.80;;;2.00;;
71387;SDS011;59201;59.902;10.520;2023-03-23T10:30:48;7.35;;;1.90;;
71387;SDS011;59201;59.902;10.520;2023-03-23T10:35:49;6.40;;;2.00;;
71387;SDS011;59201;59.902;10.520;2023-03-23T10:38:23;6.65;;;1.80;;
71387;SDS011;59201;59.902;10.520;2023-03-23T10:40:56;6.13;;;1.60;;
71387;SDS011;59201;59.902;10.520;2023-03-23T10:43:25;6.50;;;1.50;;
71387;SDS011;59201;59.902;10.520;2023-03-23T10:46:00;5.47;;;1.60;;
71387;SDS011;59201;59.902;10.520;2023-03-23T10:48:33;5.80;;;1.60;;
71387;SDS011;59201;59.902;10.520;2023-03-23T10:51:10;5.53;;;1.60;;
71387;SDS011;59201;59.902;10.520;2023-03-23T10:53:44;6.17;;;1.43;;
71387;SDS011;59201;59.902;10.520;2023-03-23T10:56:55;5.60;;;1.42;;
71387;SDS011;59201;59.902;10.520;2023-03-23T10:59:14;6.65;;;1.52;;
71387;SDS011;59201;59.902;10.520;2023-03-23T11:01:44;7.07;;;1.90;;
71387;SDS011;59201;59.902;10.520;2023-03-23T11:04:13;8.00;;;1.60;;
71387;SDS011;59201;59.902;10.520;2023-03-23T11:06:46;5.60;;;1.20;;
71387;SDS011;59201;59.902;10.520;2023-03-23T11:09:16;6.25;;;1.50;;
71387;SDS011;59201;59.902;10.520;2023-03-23T11:11:52;6.82;;;1.70;;
71387;SDS011;59201;59.902;10.520;2023-03-23T11:14:28;6.43;;;1.83;;
71387;SDS011;59201;59.902;10.520;2023-03-23T11:16:56;5.93;;;1.50;;
71387;SDS011;59201;59.902;10.520;2023-03-23T11:19:27;6.50;;;1.33;;
71387;SDS011;59201;59.902;10.520;2023-03-23T11:21:59;7.28;;;1.70;;
71387;SDS011;59201;59.902;10.520;2023-03-23T11:24:28;6.25;;;1.50;;
71387;SDS011;59201;59.902;10.520;2023-03-23T11:26:57;5.72;;;1.35;;
71387;SDS011;59201;59.902;10.520;2023-03-23T11:29:27;5.65;;;1.60;;
71387;SDS011;59201;59.902;10.520;2023-03-23T11:34:31;5.93;;;1.63;;
71387;SDS011;59201;59.902;10.520;2023-03-23T11:37:04;5.72;;;1.70;;
71387;SDS011;59201;59.902;10.520;2023-03-23T11:39:53;6.88;;;1.60;;
71387;SDS011;59201;59.902;10.520;2023-03-23T11:42:25;5.55;;;1.60;;
71387;SDS011;59201;59.902;10.520;2023-03-23T11:48:27;5.63;;;1.50;;
71387;SDS011;59201;59.902;10.520;2023-03-23T11:55:52;8.55;;;1.60;;
71387;SDS011;59201;59.902;10.520;2023-03-23T11:58:23;5.83;;;1.40;;
71387;SDS011;59201;59.902;10.520;2023-03-23T12:06:26;6.50;;;1.42;;
71387;SDS011;59201;59.902;10.520;2023-03-23T12:09:02;7.25;;;1.83;;
71387;SDS011;59201;59.902;10.520;2023-03-23T12:11:50;4.57;;;1.17;;
71387;SDS011;59201;59.902;10.520;2023-03-23T12:22:37;9.25;;;1.70;;
71387;SDS011;59201;59.902;10.520;2023-03-23T12:30:45;5.93;;;1.60;;
71387;SDS011;59201;59.902;10.520;2023-03-23T12:35:53;6.00;;;1.80;;
71387;SDS011;59201;59.902;10.520;2023-03-23T12:48:36;7.18;;;1.55;;
71387;SDS011;59201;59.902;10.520;2023-03-23T12:54:19;5.40;;;1.40;;
71387;SDS011;59201;59.902;10.520;2023-03-23T13:02:50;6.07;;;1.58;;
71387;SDS011;59201;59.902;10.520;2023-03-23T13:07:44;5.68;;;1.70;;
71387;SDS011;59201;59.902;10.520;2023-03-23T13:10:17;7.03;;;1.90;;
71387;SDS011;59201;59.902;10.520;2023-03-23T13:12:47;5.35;;;1.80;;
71387;SDS011;59201;59.902;10.520;2023-03-23T13:15:18;5.70;;;1.90;;
71387;SDS011;59201;59.902;10.520;2023-03-23T13:18:04;5.77;;;1.80;;
71387;SDS011;59201;59.902;10.520;2023-03-23T13:26:02;8.75;;;2.10;;
71387;SDS011;59201;59.902;10.520;2023-03-23T13:28:47;8.93;;;2.30;;
71387;SDS011;59201;59.902;10.520;2023-03-23T13:31:16;6.53;;;2.00;;
71387;SDS011;59201;59.902;10.520;2023-03-23T13:33:46;8.00;;;2.15;;
71387;SDS011;59201;59.902;10.520;2023-03-23T13:36:28;8.48;;;2.35;;
71387;SDS011;59201;59.902;10.520;2023-03-23T13:38:57;7.25;;;2.70;;
71387;SDS011;59201;59.902;10.520;2023-03-23T13:41:30;9.15;;;3.00;;
71387;SDS011;59201;59.902;10.520;2023-03-23T13:44:17;7.73;;;3.10;;
71387;SDS011;59201;59.902;10.520;2023-03-23T13:46:55;7.22;;;2.55;;
71387;SDS011;59201;59.902;10.520;2023-03-23T13:49:24;13.93;;;4.15;;
71387;SDS011;59201;59.902;10.520;2023-03-23T13:51:59;30.48;;;6.05;;
71387;SDS011;59201;59.902;10.520;2023-03-23T13:54:41;24.00;;;5.25;;
71387;SDS011;59201;59.902;10.520;2023-03-23T13:59:57;30.83;;;4.70;;
71387;SDS011;59201;59.902;10.520;2023-03-23T14:02:30;15.85;;;3.67;;
71387;SDS011;59201;59.902;10.520;2023-03-23T14:05:08;8.57;;;2.90;;
71387;SDS011;59201;59.902;10.520;2023-03-23T14:07:52;7.78;;;2.95;;
71387;SDS011;59201;59.902;10.520;2023-03-23T14:10:21;7.80;;;2.37;;
71387;SDS011;59201;59.902;10.520;2023-03-23T14:12:52;7.25;;;2.55;;
71387;SDS011;59201;59.902;10.520;2023-03-23T14:15:21;10.68;;;3.60;;
71387;SDS011;59201;59.902;10.520;2023-03-23T14:18:01;9.68;;;3.30;;
71387;SDS011;59201;59.902;10.520;2023-03-23T14:20:31;8.55;;;2.83;;
71387;SDS011;59201;59.902;10.520;2023-03-23T14:23:03;7.20;;;2.60;;
71387;SDS011;59201;59.902;10.520;2023-03-23T14:25:32;9.45;;;2.75;;
71387;SDS011;59201;59.902;10.520;2023-03-23T14:28:01;8.90;;;2.75;;
71387;SDS011;59201;59.902;10.520;2023-03-23T14:30:35;8.57;;;3.03;;
71387;SDS011;59201;59.902;10.520;2023-03-23T14:33:06;9.57;;;2.72;;
71387;SDS011;59201;59.902;10.520;2023-03-23T14:35:46;9.90;;;2.93;;
71387;SDS011;59201;59.902;10.520;2023-03-23T14:38:22;11.48;;;3.20;;
71387;SDS011;59201;59.902;10.520;2023-03-23T14:41:03;8.32;;;3.25;;
71387;SDS011;59201;59.902;10.520;2023-03-23T14:43:32;9.27;;;3.35;;
71387;SDS011;59201;59.902;10.520;2023-03-23T14:46:05;8.75;;;3.35;;
71387;SDS011;59201;59.902;10.520;2023-03-23T14:48:35;10.47;;;4.00;;
71387;SDS011;59201;59.902;10.520;2023-03-23T14:51:04;9.70;;;3.55;;
71387;SDS011;59201;59.902;10.520;2023-03-23T14:56:03;11.10;;;3.70;;
71387;SDS011;59201;59.902;10.520;2023-03-23T14:58:36;10.65;;;3.40;;
71387;SDS011;59201;59.902;10.520;2023-03-23T15:01:09;9.23;;;3.60;;
71387;SDS011;59201;59.902;10.520;2023-03-23T15:03:42;11.52;;;3.70;;
71387;SDS011;59201;59.902;10.520;2023-03-23T15:06:15;11.68;;;4.53;;
71387;SDS011;59201;59.902;10.520;2023-03-23T15:08:43;10.77;;;4.13;;
71387;SDS011;59201;59.902;10.520;2023-03-23T15:13:45;9.17;;;3.13;;
71387;SDS011;59201;59.902;10.520;2023-03-23T15:16:27;8.85;;;3.53;;
71387;SDS011;59201;59.902;10.520;2023-03-23T15:19:05;9.02;;;3.45;;
71387;SDS011;59201;59.902;10.520;2023-03-23T15:21:35;10.07;;;3.00;;
71387;SDS011;59201;59.902;10.520;2023-03-23T15:24:18;9.02;;;3.20;;
71387;SDS011;59201;59.902;10.520;2023-03-23T15:26:45;7.63;;;3.00;;
71387;SDS011;59201;59.902;10.520;2023-03-23T15:29:16;9.45;;;3.58;;
71387;SDS011;59201;59.902;10.520;2023-03-23T15:31:48;8.63;;;3.33;;
71387;SDS011;59201;59.902;10.520;2023-03-23T15:34:35;10.10;;;3.33;;
71387;SDS011;59201;59.902;10.520;2023-03-23T15:37:22;12.27;;;4.15;;
71387;SDS011;59201;59.902;10.520;2023-03-23T15:39:51;11.20;;;4.80;;
71387;SDS011;59201;59.902;10.520;2023-03-23T15:42:26;11.13;;;5.05;;
71387;SDS011;59201;59.902;10.520;2023-03-23T15:47:38;10.23;;;4.10;;
71387;SDS011;59201;59.902;10.520;2023-03-23T15:50:16;9.65;;;4.38;;
71387;SDS011;59201;59.902;10.520;2023-03-23T15:52:44;11.13;;;4.37;;
71387;SDS011;59201;59.902;10.520;2023-03-23T15:57:48;13.68;;;4.60;;
71387;SDS011;59201;59.902;10.520;2023-03-23T16:00:19;14.35;;;5.18;;
71387;SDS011;59201;59.902;10.520;2023-03-23T16:02:54;19.98;;;7.35;;
71387;SDS011;59201;59.902;10.520;2023-03-23T16:05:23;18.73;;;7.77;;
71387;SDS011;59201;59.902;10.520;2023-03-23T16:07:57;19.80;;;8.43;;
71387;SDS011;59201;59.902;10.520;2023-03-23T16:10:25;27.05;;;10.32;;
71387;SDS011;59201;59.902;10.520;2023-03-23T16:12:58;22.33;;;8.50;;
71387;SDS011;59201;59.902;10.520;2023-03-23T16:15:26;22.95;;;8.57;;
71387;SDS011;59201;59.902;10.520;2023-03-23T16:17:53;21.50;;;8.27;;
71387;SDS011;59201;59.902;10.520;2023-03-23T16:20:22;21.98;;;9.45;;
71387;SDS011;59201;59.902;10.520;2023-03-23T16:22:49;21.55;;;8.57;;
71387;SDS011;59201;59.902;10.520;2023-03-23T16:25:22;19.77;;;8.85;;
71387;SDS011;59201;59.902;10.520;2023-03-23T16:27:51;21.05;;;8.43;;
71387;SDS011;59201;59.902;10.520;2023-03-23T16:30:26;20.80;;;7.77;;
71387;SDS011;59201;59.902;10.520;2023-03-23T16:32:54;16.17;;;6.88;;
71387;SDS011;59201;59.902;10.520;2023-03-23T16:35:23;14.60;;;6.85;;
71387;SDS011;59201;59.902;10.520;2023-03-23T16:37:51;18.42;;;7.50;;
71387;SDS011;59201;59.902;10.520;2023-03-23T16:40:19;19.55;;;8.60;;
71387;SDS011;59201;59.902;10.520;2023-03-23T16:42:48;18.93;;;7.77;;
71387;SDS011;59201;59.902;10.520;2023-03-23T16:45:16;18.38;;;7.60;;
71387;SDS011;59201;59.902;10.520;2023-03-23T16:47:46;17.25;;;7.18;;